sensor_id;sensor_type;location;lat;lon;timestamp;temperature;humidity
2497;DHT22;1259;48.306;14.374;2023-04-24T00:01:26;11.90;99.90
2497;DHT22;1259;48.306;14.374;2023-04-24T00:03:54;11.90;99.90
2497;DHT22;1259;48.306;14.374;2023-04-24T00:06:21;11.90;99.90
2497;DHT22;1259;48.306;14.374;2023-04-24T00:08:48;11.90;99.90
2497;DHT22;1259;48.306;14.374;2023-04-24T00:11:16;11.90;99.90
2497;DHT22;1259;48.306;14.374;2023-04-24T00:13:43;11.90;99.90
2497;DHT22;1259;48.306;14.374;2023-04-24T00:16:10;12.00;99.90
2497;DHT22;1259;48.306;14.374;2023-04-24T00:18:37;11.90;99.90
2497;DHT22;1259;48.306;14.374;2023-04-24T00:21:03;12.00;99.90
2497;DHT22;1259;48.306;14.374;2023-04-24T00:23:31;11.80;99.90
2497;DHT22;1259;48.306;14.374;2023-04-24T00:25:57;11.90;99.90
2497;DHT22;1259;48.306;14.374;2023-04-24T00:28:25;11.90;99.90
2497;DHT22;1259;48.306;14.374;2023-04-24T00:30:52;12.00;99.90
2497;DHT22;1259;48.306;14.374;2023-04-24T00:33:19;11.90;99.90
2497;DHT22;1259;48.306;14.374;2023-04-24T00:35:45;11.90;99.90
2497;DHT22;1259;48.306;14.374;2023-04-24T00:38:12;11.90;99.90
2497;DHT22;1259;48.306;14.374;2023-04-24T00:40:39;12.00;99.90
2497;DHT22;1259;48.306;14.374;2023-04-24T00:43:05;12.00;99.90
2497;DHT22;1259;48.306;14.374;2023-04-24T00:45:34;12.00;99.90
2497;DHT22;1259;48.306;14.374;2023-04-24T00:48:00;12.00;99.90
2497;DHT22;1259;48.306;14.374;2023-04-24T00:50:27;12.00;99.90
2497;DHT22;1259;48.306;14.374;2023-04-24T00:52:54;12.00;99.90
2497;DHT22;1259;48.306;14.374;2023-04-24T00:55:21;12.00;99.90
2497;DHT22;1259;48.306;14.374;2023-04-24T00:57:48;12.00;99.90
2497;DHT22;1259;48.306;14.374;2023-04-24T01:00:16;12.00;99.90
2497;DHT22;1259;48.306;14.374;2023-04-24T01:02:45;12.00;99.90
2497;DHT22;1259;48.306;14.374;2023-04-24T01:05:12;11.90;99.90
2497;DHT22;1259;48.306;14.374;2023-04-24T01:07:40;11.90;99.90
2497;DHT22;1259;48.306;14.374;2023-04-24T01:10:09;11.90;99.90
2497;DHT22;1259;48.306;14.374;2023-04-24T01:12:36;11.90;99.90
2497;DHT22;1259;48.306;14.374;2023-04-24T01:15:03;11.90;99.90
2497;DHT22;1259;48.306;14.374;2023-04-24T01:17:30;11.90;99.90
2497;DHT22;1259;48.306;14.374;2023-04-24T01:19:59;11.90;99.90
2497;DHT22;1259;48.306;14.374;2023-04-24T01:22:27;11.90;99.90
2497;DHT22;1259;48.306;14.374;2023-04-24T01:24:54;11.90;99.90
2497;DHT22;1259;48.306;14.374;2023-04-24T01:27:21;11.80;99.90
2497;DHT22;1259;48.306;14.374;2023-04-24T01:29:47;11.80;99.90
2497;DHT22;1259;48.306;14.374;2023-04-24T01:32:17;11.80;99.90
2497;DHT22;1259;48.306;14.374;2023-04-24T01:34:43;11.80;99.90
2497;DHT22;1259;48.306;14.374;2023-04-24T01:37:10;11.80;99.90
2497;DHT22;1259;48.306;14.374;2023-04-24T01:39:38;11.90;99.90
2497;DHT22;1259;48.306;14.374;2023-04-24T01:42:05;11.90;99.90
2497;DHT22;1259;48.306;14.374;2023-04-24T01:44:32;11.90;99.90
2497;DHT22;1259;48.306;14.374;2023-04-24T01:47:00;11.90;99.90
2497;DHT22;1259;48.306;14.374;2023-04-24T01:49:26;11.80;99.90
2497;DHT22;1259;48.306;14.374;2023-04-24T01:51:53;11.80;99.90
2497;DHT22;1259;48.306;14.374;2023-04-24T01:54:20;11.90;99.90
2497;DHT22;1259;48.306;14.374;2023-04-24T01:56:48;11.80;99.90
2497;DHT22;1259;48.306;14.374;2023-04-24T01:59:15;11.80;99.90
2497;DHT22;1259;48.306;14.374;2023-04-24T02:01:43;11.80;99.90
2497;DHT22;1259;48.306;14.374;2023-04-24T02:04:10;11.70;99.90
2497;DHT22;1259;48.306;14.374;2023-04-24T02:06:36;11.70;99.90
2497;DHT22;1259;48.306;14.374;2023-04-24T02:09:03;11.70;99.90
2497;DHT22;1259;48.306;14.374;2023-04-24T02:11:30;11.60;99.90
2497;DHT22;1259;48.306;14.374;2023-04-24T02:13:58;11.60;99.90
2497;DHT22;1259;48.306;14.374;2023-04-24T02:16:27;11.50;99.90
2497;DHT22;1259;48.306;14.374;2023-04-24T02:18:55;11.50;99.90
2497;DHT22;1259;48.306;14.374;2023-04-24T02:21:22;11.50;99.90
2497;DHT22;1259;48.306;14.374;2023-04-24T02:23:48;11.50;99.90
2497;DHT22;1259;48.306;14.374;2023-04-24T02:26:15;11.50;99.90
2497;DHT22;1259;48.306;14.374;2023-04-24T02:28:42;11.50;99.90
2497;DHT22;1259;48.306;14.374;2023-04-24T02:31:10;11.50;99.90
2497;DHT22;1259;48.306;14.374;2023-04-24T02:33:37;11.60;99.90
2497;DHT22;1259;48.306;14.374;2023-04-24T02:36:05;11.60;99.90
2497;DHT22;1259;48.306;14.374;2023-04-24T02:38:32;11.60;99.90
2497;DHT22;1259;48.306;14.374;2023-04-24T02:40:59;11.60;99.90
2497;DHT22;1259;48.306;14.374;2023-04-24T02:43:26;11.50;99.90
2497;DHT22;1259;48.306;14.374;2023-04-24T02:45:52;11.50;99.90
2497;DHT22;1259;48.306;14.374;2023-04-24T02:48:20;11.50;99.90
2497;DHT22;1259;48.306;14.374;2023-04-24T02:50:47;11.50;99.90
2497;DHT22;1259;48.306;14.374;2023-04-24T02:53:14;11.40;99.90
2497;DHT22;1259;48.306;14.374;2023-04-24T02:55:40;11.50;99.90
2497;DHT22;1259;48.306;14.374;2023-04-24T02:58:07;11.50;99.90
2497;DHT22;1259;48.306;14.374;2023-04-24T03:00:34;11.40;99.90
2497;DHT22;1259;48.306;14.374;2023-04-24T03:03:00;11.50;99.90
2497;DHT22;1259;48.306;14.374;2023-04-24T03:05:29;11.40;99.90
2497;DHT22;1259;48.306;14.374;2023-04-24T03:07:56;11.30;99.90
2497;DHT22;1259;48.306;14.374;2023-04-24T03:10:23;11.30;99.90
2497;DHT22;1259;48.306;14.374;2023-04-24T03:12:49;11.20;99.90
2497;DHT22;1259;48.306;14.374;2023-04-24T03:15:16;11.30;99.90
2497;DHT22;1259;48.306;14.374;2023-04-24T03:17:43;11.30;99.90
2497;DHT22;1259;48.306;14.374;2023-04-24T03:20:10;11.20;99.90
2497;DHT22;1259;48.306;14.374;2023-04-24T03:22:38;11.20;99.90
2497;DHT22;1259;48.306;14.374;2023-04-24T03:25:05;11.30;99.90
2497;DHT22;1259;48.306;14.374;2023-04-24T03:27:33;11.30;99.90
2497;DHT22;1259;48.306;14.374;2023-04-24T03:30:02;11.30;99.90
2497;DHT22;1259;48.306;14.374;2023-04-24T03:32:29;11.30;99.90
2497;DHT22;1259;48.306;14.374;2023-04-24T03:34:57;11.40;99.90
2497;DHT22;1259;48.306;14.374;2023-04-24T03:37:24;11.40;99.90
2497;DHT22;1259;48.306;14.374;2023-04-24T03:39:53;11.30;99.90
2497;DHT22;1259;48.306;14.374;2023-04-24T03:42:19;11.30;99.90
2497;DHT22;1259;48.306;14.374;2023-04-24T03:44:46;11.30;99.90
2497;DHT22;1259;48.306;14.374;2023-04-24T03:47:13;11.30;99.90
2497;DHT22;1259;48.306;14.374;2023-04-24T03:49:40;11.30;99.90
2497;DHT22;1259;48.306;14.374;2023-04-24T03:52:07;11.20;99.90
2497;DHT22;1259;48.306;14.374;2023-04-24T03:54:33;11.20;99.90
2497;DHT22;1259;48.306;14.374;2023-04-24T03:57:01;11.20;99.90
2497;DHT22;1259;48.306;14.374;2023-04-24T03:59:28;11.20;99.90
2497;DHT22;1259;48.306;14.374;2023-04-24T04:01:55;11.20;99.90
2497;DHT22;1259;48.306;14.374;2023-04-24T04:04:22;11.30;99.90
2497;DHT22;1259;48.306;14.374;2023-04-24T04:06:48;11.20;99.90
2497;DHT22;1259;48.306;14.374;2023-04-24T04:09:15;11.30;99.90
2497;DHT22;1259;48.306;14.374;2023-04-24T04:11:42;11.10;99.90
2497;DHT22;1259;48.306;14.374;2023-04-24T04:14:10;11.20;99.90
2497;DHT22;1259;48.306;14.374;2023-04-24T04:16:39;11.10;99.90
2497;DHT22;1259;48.306;14.374;2023-04-24T04:19:06;11.20;99.90
2497;DHT22;1259;48.306;14.374;2023-04-24T04:21:33;11.30;99.90
2497;DHT22;1259;48.306;14.374;2023-04-24T04:24:00;11.30;99.90
2497;DHT22;1259;48.306;14.374;2023-04-24T04:26:26;11.20;99.90
2497;DHT22;1259;48.306;14.374;2023-04-24T04:28:53;11.30;99.90
2497;DHT22;1259;48.306;14.374;2023-04-24T04:31:22;11.30;99.90
2497;DHT22;1259;48.306;14.374;2023-04-24T04:33:50;11.30;99.90
2497;DHT22;1259;48.306;14.374;2023-04-24T04:36:16;11.30;99.90
2497;DHT22;1259;48.306;14.374;2023-04-24T04:38:43;11.30;99.90
2497;DHT22;1259;48.306;14.374;2023-04-24T04:41:10;11.20;99.90
2497;DHT22;1259;48.306;14.374;2023-04-24T04:43:37;11.20;99.90
2497;DHT22;1259;48.306;14.374;2023-04-24T04:46:05;11.10;99.90
2497;DHT22;1259;48.306;14.374;2023-04-24T04:48:35;11.10;99.90
2497;DHT22;1259;48.306;14.374;2023-04-24T04:51:01;11.20;99.90
2497;DHT22;1259;48.306;14.374;2023-04-24T04:53:28;11.20;99.90
2497;DHT22;1259;48.306;14.374;2023-04-24T04:55:55;11.10;99.90
2497;DHT22;1259;48.306;14.374;2023-04-24T04:58:22;11.00;99.90
2497;DHT22;1259;48.306;14.374;2023-04-24T05:00:48;11.00;99.90
2497;DHT22;1259;48.306;14.374;2023-04-24T05:03:15;11.00;99.90
2497;DHT22;1259;48.306;14.374;2023-04-24T05:05:43;11.00;99.90
2497;DHT22;1259;48.306;14.374;2023-04-24T05:08:10;11.00;99.90
2497;DHT22;1259;48.306;14.374;2023-04-24T05:10:37;11.00;99.90
2497;DHT22;1259;48.306;14.374;2023-04-24T05:13:03;11.10;99.90
2497;DHT22;1259;48.306;14.374;2023-04-24T05:15:30;11.10;99.90
2497;DHT22;1259;48.306;14.374;2023-04-24T05:17:56;11.10;99.90
2497;DHT22;1259;48.306;14.374;2023-04-24T05:20:23;11.10;99.90
2497;DHT22;1259;48.306;14.374;2023-04-24T05:22:51;11.10;99.90
2497;DHT22;1259;48.306;14.374;2023-04-24T05:25:18;11.00;99.90
2497;DHT22;1259;48.306;14.374;2023-04-24T05:27:45;11.00;99.90
2497;DHT22;1259;48.306;14.374;2023-04-24T05:30:12;10.80;99.90
2497;DHT22;1259;48.306;14.374;2023-04-24T05:32:38;10.80;99.90
2497;DHT22;1259;48.306;14.374;2023-04-24T05:35:05;10.70;99.90
2497;DHT22;1259;48.306;14.374;2023-04-24T05:37:33;10.70;99.90
2497;DHT22;1259;48.306;14.374;2023-04-24T05:40:01;10.70;99.90
2497;DHT22;1259;48.306;14.374;2023-04-24T05:42:29;10.70;99.90
2497;DHT22;1259;48.306;14.374;2023-04-24T05:44:55;10.70;99.90
2497;DHT22;1259;48.306;14.374;2023-04-24T05:47:22;10.50;99.90
2497;DHT22;1259;48.306;14.374;2023-04-24T05:49:49;10.50;99.90
2497;DHT22;1259;48.306;14.374;2023-04-24T05:52:15;10.50;99.90
2497;DHT22;1259;48.306;14.374;2023-04-24T05:54:42;10.50;99.90
2497;DHT22;1259;48.306;14.374;2023-04-24T05:57:10;10.50;99.90
2497;DHT22;1259;48.306;14.374;2023-04-24T05:59:37;10.40;99.90
2497;DHT22;1259;48.306;14.374;2023-04-24T06:02:04;10.30;99.90
2497;DHT22;1259;48.306;14.374;2023-04-24T06:04:31;10.10;99.90
2497;DHT22;1259;48.306;14.374;2023-04-24T06:06:58;10.10;99.90
2497;DHT22;1259;48.306;14.374;2023-04-24T06:09:25;10.30;99.90
2497;DHT22;1259;48.306;14.374;2023-04-24T06:11:52;10.20;99.90
2497;DHT22;1259;48.306;14.374;2023-04-24T06:14:20;10.30;99.90
2497;DHT22;1259;48.306;14.374;2023-04-24T06:16:47;10.10;99.90
2497;DHT22;1259;48.306;14.374;2023-04-24T06:19:14;10.00;99.90
2497;DHT22;1259;48.306;14.374;2023-04-24T06:21:40;10.00;99.90
2497;DHT22;1259;48.306;14.374;2023-04-24T06:24:07;10.00;99.90
2497;DHT22;1259;48.306;14.374;2023-04-24T06:26:34;10.10;99.90
2497;DHT22;1259;48.306;14.374;2023-04-24T06:29:00;10.00;99.90
2497;DHT22;1259;48.306;14.374;2023-04-24T06:31:29;10.00;99.90
2497;DHT22;1259;48.306;14.374;2023-04-24T06:33:55;10.00;99.90
2497;DHT22;1259;48.306;14.374;2023-04-24T06:36:22;10.00;99.90
2497;DHT22;1259;48.306;14.374;2023-04-24T06:38:49;10.00;99.90
2497;DHT22;1259;48.306;14.374;2023-04-24T06:41:15;9.90;99.90
2497;DHT22;1259;48.306;14.374;2023-04-24T06:43:42;10.00;99.90
2497;DHT22;1259;48.306;14.374;2023-04-24T06:46:09;9.90;99.90
2497;DHT22;1259;48.306;14.374;2023-04-24T06:48:37;9.90;99.90
2497;DHT22;1259;48.306;14.374;2023-04-24T06:51:04;9.80;99.90
2497;DHT22;1259;48.306;14.374;2023-04-24T06:53:31;9.90;99.90
2497;DHT22;1259;48.306;14.374;2023-04-24T06:55:58;9.80;99.90
2497;DHT22;1259;48.306;14.374;2023-04-24T06:58:25;9.70;99.90
2497;DHT22;1259;48.306;14.374;2023-04-24T07:00:51;9.80;99.90
2497;DHT22;1259;48.306;14.374;2023-04-24T07:03:18;9.80;99.90
2497;DHT22;1259;48.306;14.374;2023-04-24T07:05:46;9.70;99.90
2497;DHT22;1259;48.306;14.374;2023-04-24T07:08:13;9.70;99.90
2497;DHT22;1259;48.306;14.374;2023-04-24T07:10:42;9.70;99.90
2497;DHT22;1259;48.306;14.374;2023-04-24T07:13:09;9.70;99.90
2497;DHT22;1259;48.306;14.374;2023-04-24T07:15:35;9.70;99.90
2497;DHT22;1259;48.306;14.374;2023-04-24T07:18:02;9.80;99.90
2497;DHT22;1259;48.306;14.374;2023-04-24T07:20:29;9.70;99.90
2497;DHT22;1259;48.306;14.374;2023-04-24T07:22:57;9.70;99.90
2497;DHT22;1259;48.306;14.374;2023-04-24T07:25:24;9.70;99.90
2497;DHT22;1259;48.306;14.374;2023-04-24T07:27:51;9.70;99.90
2497;DHT22;1259;48.306;14.374;2023-04-24T07:30:18;9.80;99.90
2497;DHT22;1259;48.306;14.374;2023-04-24T07:32:45;9.80;99.90
2497;DHT22;1259;48.306;14.374;2023-04-24T07:35:11;9.80;99.90
2497;DHT22;1259;48.306;14.374;2023-04-24T07:37:38;9.80;99.90
2497;DHT22;1259;48.306;14.374;2023-04-24T07:40:07;9.70;99.90
2497;DHT22;1259;48.306;14.374;2023-04-24T07:42:34;9.70;99.90
2497;DHT22;1259;48.306;14.374;2023-04-24T07:45:01;9.80;99.90
2497;DHT22;1259;48.306;14.374;2023-04-24T07:47:28;9.80;99.90
2497;DHT22;1259;48.306;14.374;2023-04-24T07:49:55;9.80;99.90
2497;DHT22;1259;48.306;14.374;2023-04-24T07:52:21;9.90;99.90
2497;DHT22;1259;48.306;14.374;2023-04-24T07:54:48;9.80;99.90
2497;DHT22;1259;48.306;14.374;2023-04-24T07:57:16;10.00;99.90
2497;DHT22;1259;48.306;14.374;2023-04-24T07:59:43;10.00;99.90
2497;DHT22;1259;48.306;14.374;2023-04-24T08:02:10;10.00;99.90
2497;DHT22;1259;48.306;14.374;2023-04-24T08:04:37;10.00;99.90
2497;DHT22;1259;48.306;14.374;2023-04-24T08:07:03;10.00;99.90
2497;DHT22;1259;48.306;14.374;2023-04-24T08:09:30;10.00;99.90
2497;DHT22;1259;48.306;14.374;2023-04-24T08:11:57;10.10;99.90
2497;DHT22;1259;48.306;14.374;2023-04-24T08:14:25;10.10;99.90
2497;DHT22;1259;48.306;14.374;2023-04-24T08:16:53;10.20;99.90
2497;DHT22;1259;48.306;14.374;2023-04-24T08:19:20;10.20;99.90
2497;DHT22;1259;48.306;14.374;2023-04-24T08:21:47;10.10;99.90
2497;DHT22;1259;48.306;14.374;2023-04-24T08:24:13;10.10;99.90
2497;DHT22;1259;48.306;14.374;2023-04-24T08:26:40;10.20;99.90
2497;DHT22;1259;48.306;14.374;2023-04-24T08:29:07;10.20;99.90
2497;DHT22;1259;48.306;14.374;2023-04-24T08:31:35;10.20;99.90
2497;DHT22;1259;48.306;14.374;2023-04-24T08:34:01;10.20;99.90
2497;DHT22;1259;48.306;14.374;2023-04-24T08:36:28;10.20;99.90
2497;DHT22;1259;48.306;14.374;2023-04-24T08:38:55;10.20;99.90
2497;DHT22;1259;48.306;14.374;2023-04-24T08:41:22;10.20;99.90
2497;DHT22;1259;48.306;14.374;2023-04-24T08:43:51;10.20;99.90
2497;DHT22;1259;48.306;14.374;2023-04-24T08:46:18;10.30;99.90
2497;DHT22;1259;48.306;14.374;2023-04-24T08:48:47;10.30;99.90
2497;DHT22;1259;48.306;14.374;2023-04-24T08:51:14;10.20;99.90
2497;DHT22;1259;48.306;14.374;2023-04-24T08:53:41;10.30;99.90
2497;DHT22;1259;48.306;14.374;2023-04-24T08:56:08;10.30;99.90
2497;DHT22;1259;48.306;14.374;2023-04-24T08:58:35;10.20;99.90
2497;DHT22;1259;48.306;14.374;2023-04-24T09:01:02;10.30;99.90
2497;DHT22;1259;48.306;14.374;2023-04-24T09:03:29;10.30;99.90
2497;DHT22;1259;48.306;14.374;2023-04-24T09:05:57;10.30;99.90
2497;DHT22;1259;48.306;14.374;2023-04-24T09:08:25;10.40;99.90
2497;DHT22;1259;48.306;14.374;2023-04-24T09:10:52;10.40;99.90
2497;DHT22;1259;48.306;14.374;2023-04-24T09:13:19;10.40;99.90
2497;DHT22;1259;48.306;14.374;2023-04-24T09:15:46;10.30;99.90
2497;DHT22;1259;48.306;14.374;2023-04-24T09:18:13;10.30;99.90
2497;DHT22;1259;48.306;14.374;2023-04-24T09:23:22;10.40;99.90
2497;DHT22;1259;48.306;14.374;2023-04-24T09:25:49;10.50;99.90
2497;DHT22;1259;48.306;14.374;2023-04-24T09:28:22;10.50;99.90
2497;DHT22;1259;48.306;14.374;2023-04-24T09:31:01;10.60;99.90
2497;DHT22;1259;48.306;14.374;2023-04-24T09:33:28;10.60;99.90
2497;DHT22;1259;48.306;14.374;2023-04-24T09:35:55;10.70;99.90
2497;DHT22;1259;48.306;14.374;2023-04-24T09:38:29;10.70;99.90
2497;DHT22;1259;48.306;14.374;2023-04-24T09:40:58;10.70;99.90
2497;DHT22;1259;48.306;14.374;2023-04-24T09:43:26;10.70;99.90
2497;DHT22;1259;48.306;14.374;2023-04-24T09:45:54;10.80;99.90
2497;DHT22;1259;48.306;14.374;2023-04-24T09:48:29;10.70;99.90
2497;DHT22;1259;48.306;14.374;2023-04-24T09:50:56;10.70;99.90
2497;DHT22;1259;48.306;14.374;2023-04-24T09:53:23;10.70;99.90
2497;DHT22;1259;48.306;14.374;2023-04-24T09:55:52;10.70;99.90
2497;DHT22;1259;48.306;14.374;2023-04-24T09:58:24;10.80;99.90
2497;DHT22;1259;48.306;14.374;2023-04-24T10:00:53;10.90;99.90
2497;DHT22;1259;48.306;14.374;2023-04-24T10:03:19;11.00;99.90
2497;DHT22;1259;48.306;14.374;2023-04-24T10:05:46;11.10;99.90
2497;DHT22;1259;48.306;14.374;2023-04-24T10:08:13;11.10;99.90
2497;DHT22;1259;48.306;14.374;2023-04-24T10:10:41;11.20;99.90
2497;DHT22;1259;48.306;14.374;2023-04-24T10:13:10;11.20;99.90
2497;DHT22;1259;48.306;14.374;2023-04-24T10:15:37;11.30;99.90
2497;DHT22;1259;48.306;14.374;2023-04-24T10:18:04;11.30;99.90
2497;DHT22;1259;48.306;14.374;2023-04-24T10:20:31;11.30;99.90
2497;DHT22;1259;48.306;14.374;2023-04-24T10:22:59;11.50;99.90
2497;DHT22;1259;48.306;14.374;2023-04-24T10:25:26;11.50;99.90
2497;DHT22;1259;48.306;14.374;2023-04-24T10:27:53;11.60;99.90
2497;DHT22;1259;48.306;14.374;2023-04-24T10:30:24;11.60;99.90
2497;DHT22;1259;48.306;14.374;2023-04-24T10:32:50;11.60;99.90
2497;DHT22;1259;48.306;14.374;2023-04-24T10:35:17;11.70;99.90
2497;DHT22;1259;48.306;14.374;2023-04-24T10:37:48;11.80;99.90
2497;DHT22;1259;48.306;14.374;2023-04-24T10:40:17;11.70;99.90
2497;DHT22;1259;48.306;14.374;2023-04-24T10:42:47;11.70;99.90
2497;DHT22;1259;48.306;14.374;2023-04-24T10:45:16;11.60;99.90
2497;DHT22;1259;48.306;14.374;2023-04-24T10:47:51;11.60;99.90
2497;DHT22;1259;48.306;14.374;2023-04-24T10:50:18;11.70;99.90
2497;DHT22;1259;48.306;14.374;2023-04-24T10:52:45;11.70;99.90
2497;DHT22;1259;48.306;14.374;2023-04-24T10:55:12;11.60;99.90
2497;DHT22;1259;48.306;14.374;2023-04-24T10:57:39;11.80;99.90
2497;DHT22;1259;48.306;14.374;2023-04-24T11:00:19;12.00;99.90
2497;DHT22;1259;48.306;14.374;2023-04-24T11:02:46;12.00;99.90
2497;DHT22;1259;48.306;14.374;2023-04-24T11:05:17;12.00;99.90
2497;DHT22;1259;48.306;14.374;2023-04-24T11:10:29;12.40;99.90
2497;DHT22;1259;48.306;14.374;2023-04-24T11:12:56;12.50;99.90
2497;DHT22;1259;48.306;14.374;2023-04-24T11:15:22;12.80;99.90
2497;DHT22;1259;48.306;14.374;2023-04-24T11:17:49;13.00;99.90
2497;DHT22;1259;48.306;14.374;2023-04-24T11:20:23;12.90;99.90
2497;DHT22;1259;48.306;14.374;2023-04-24T11:22:52;12.80;99.90
2497;DHT22;1259;48.306;14.374;2023-04-24T11:25:20;12.90;99.90
2497;DHT22;1259;48.306;14.374;2023-04-24T11:27:47;12.90;99.90
2497;DHT22;1259;48.306;14.374;2023-04-24T11:30:16;12.90;99.90
2497;DHT22;1259;48.306;14.374;2023-04-24T11:32:43;12.90;99.90
2497;DHT22;1259;48.306;14.374;2023-04-24T11:35:14;13.00;99.90
2497;DHT22;1259;48.306;14.374;2023-04-24T11:37:43;13.10;99.90
2497;DHT22;1259;48.306;14.374;2023-04-24T11:40:12;13.30;99.90
2497;DHT22;1259;48.306;14.374;2023-04-24T11:42:39;13.50;99.90
2497;DHT22;1259;48.306;14.374;2023-04-24T11:45:07;13.40;99.90
2497;DHT22;1259;48.306;14.374;2023-04-24T11:47:34;13.30;99.90
2497;DHT22;1259;48.306;14.374;2023-04-24T11:50:01;13.10;99.90
2497;DHT22;1259;48.306;14.374;2023-04-24T11:52:29;12.90;99.90
2497;DHT22;1259;48.306;14.374;2023-04-24T11:54:57;12.70;99.90
2497;DHT22;1259;48.306;14.374;2023-04-24T11:57:24;12.60;99.90
2497;DHT22;1259;48.306;14.374;2023-04-24T11:59:53;12.40;99.90
2497;DHT22;1259;48.306;14.374;2023-04-24T12:02:20;12.20;99.90
2497;DHT22;1259;48.306;14.374;2023-04-24T12:04:47;11.90;99.90
2497;DHT22;1259;48.306;14.374;2023-04-24T12:07:13;11.90;99.90
2497;DHT22;1259;48.306;14.374;2023-04-24T12:09:40;11.70;99.90
2497;DHT22;1259;48.306;14.374;2023-04-24T12:12:11;11.70;99.90
2497;DHT22;1259;48.306;14.374;2023-04-24T12:14:46;11.70;99.90
2497;DHT22;1259;48.306;14.374;2023-04-24T12:17:13;11.60;99.90
2497;DHT22;1259;48.306;14.374;2023-04-24T12:19:44;11.60;99.90
2497;DHT22;1259;48.306;14.374;2023-04-24T12:22:11;11.50;99.90
2497;DHT22;1259;48.306;14.374;2023-04-24T12:27:21;11.50;99.90
2497;DHT22;1259;48.306;14.374;2023-04-24T12:29:51;11.50;99.90
2497;DHT22;1259;48.306;14.374;2023-04-24T12:32:18;11.50;99.90
2497;DHT22;1259;48.306;14.374;2023-04-24T12:34:45;11.40;99.90
2497;DHT22;1259;48.306;14.374;2023-04-24T12:37:12;11.30;99.90
2497;DHT22;1259;48.306;14.374;2023-04-24T12:39:38;10.80;99.90
2497;DHT22;1259;48.306;14.374;2023-04-24T12:42:05;10.60;99.90
2497;DHT22;1259;48.306;14.374;2023-04-24T12:44:33;10.40;99.90
2497;DHT22;1259;48.306;14.374;2023-04-24T12:47:02;10.20;99.90
2497;DHT22;1259;48.306;14.374;2023-04-24T12:49:29;10.20;99.90
2497;DHT22;1259;48.306;14.374;2023-04-24T12:51:56;10.20;99.90
2497;DHT22;1259;48.306;14.374;2023-04-24T12:54:23;10.20;99.90
2497;DHT22;1259;48.306;14.374;2023-04-24T12:56:50;10.20;99.90
2497;DHT22;1259;48.306;14.374;2023-04-24T12:59:16;10.20;99.90
2497;DHT22;1259;48.306;14.374;2023-04-24T13:01:44;10.30;99.90
2497;DHT22;1259;48.306;14.374;2023-04-24T13:04:11;10.20;99.90
2497;DHT22;1259;48.306;14.374;2023-04-24T13:06:38;10.20;99.90
2497;DHT22;1259;48.306;14.374;2023-04-24T13:09:04;10.10;99.90
2497;DHT22;1259;48.306;14.374;2023-04-24T13:11:31;10.10;99.90
2497;DHT22;1259;48.306;14.374;2023-04-24T13:13:58;10.10;99.90
2497;DHT22;1259;48.306;14.374;2023-04-24T13:16:24;10.20;99.90
2497;DHT22;1259;48.306;14.374;2023-04-24T13:18:52;10.20;99.90
2497;DHT22;1259;48.306;14.374;2023-04-24T13:21:19;10.30;99.90
2497;DHT22;1259;48.306;14.374;2023-04-24T13:23:46;10.30;99.90
2497;DHT22;1259;48.306;14.374;2023-04-24T13:26:12;10.40;99.90
2497;DHT22;1259;48.306;14.374;2023-04-24T13:28:39;10.50;99.90
2497;DHT22;1259;48.306;14.374;2023-04-24T13:31:06;10.60;99.90
2497;DHT22;1259;48.306;14.374;2023-04-24T13:33:32;10.70;99.90
2497;DHT22;1259;48.306;14.374;2023-04-24T13:36:00;10.90;99.90
2497;DHT22;1259;48.306;14.374;2023-04-24T13:38:27;11.00;99.90
2497;DHT22;1259;48.306;14.374;2023-04-24T13:40:54;11.10;99.90
2497;DHT22;1259;48.306;14.374;2023-04-24T13:43:21;11.10;99.90
2497;DHT22;1259;48.306;14.374;2023-04-24T13:45:48;11.10;99.90
2497;DHT22;1259;48.306;14.374;2023-04-24T13:48:14;11.20;99.90
2497;DHT22;1259;48.306;14.374;2023-04-24T13:50:41;11.30;99.90
2497;DHT22;1259;48.306;14.374;2023-04-24T13:53:09;11.40;99.90
2497;DHT22;1259;48.306;14.374;2023-04-24T13:55:36;11.50;99.90
2497;DHT22;1259;48.306;14.374;2023-04-24T13:58:04;11.50;99.90
2497;DHT22;1259;48.306;14.374;2023-04-24T14:00:31;11.70;99.90
2497;DHT22;1259;48.306;14.374;2023-04-24T14:02:58;11.80;99.90
2497;DHT22;1259;48.306;14.374;2023-04-24T14:05:26;11.80;99.90
2497;DHT22;1259;48.306;14.374;2023-04-24T14:07:53;11.80;99.90
2497;DHT22;1259;48.306;14.374;2023-04-24T14:10:21;11.90;99.90
2497;DHT22;1259;48.306;14.374;2023-04-24T14:12:47;12.00;99.90
2497;DHT22;1259;48.306;14.374;2023-04-24T14:15:14;11.90;99.90
2497;DHT22;1259;48.306;14.374;2023-04-24T14:17:42;11.90;99.90
2497;DHT22;1259;48.306;14.374;2023-04-24T14:20:08;12.00;99.90
2497;DHT22;1259;48.306;14.374;2023-04-24T14:22:35;12.10;99.90
2497;DHT22;1259;48.306;14.374;2023-04-24T14:25:02;12.10;99.90
2497;DHT22;1259;48.306;14.374;2023-04-24T14:27:30;11.90;99.90
2497;DHT22;1259;48.306;14.374;2023-04-24T14:29:57;12.00;99.90
2497;DHT22;1259;48.306;14.374;2023-04-24T14:32:24;11.90;99.90
2497;DHT22;1259;48.306;14.374;2023-04-24T14:34:51;12.10;99.90
2497;DHT22;1259;48.306;14.374;2023-04-24T14:37:17;12.10;99.90
2497;DHT22;1259;48.306;14.374;2023-04-24T14:39:44;12.20;99.90
2497;DHT22;1259;48.306;14.374;2023-04-24T14:42:11;12.10;99.90
2497;DHT22;1259;48.306;14.374;2023-04-24T14:44:40;12.20;99.90
2497;DHT22;1259;48.306;14.374;2023-04-24T14:47:07;12.20;99.90
2497;DHT22;1259;48.306;14.374;2023-04-24T14:49:33;12.20;99.90
2497;DHT22;1259;48.306;14.374;2023-04-24T14:52:00;12.30;99.90
2497;DHT22;1259;48.306;14.374;2023-04-24T14:54:28;12.30;99.90
2497;DHT22;1259;48.306;14.374;2023-04-24T14:56:55;12.30;99.90
2497;DHT22;1259;48.306;14.374;2023-04-24T14:59:23;12.30;99.90
2497;DHT22;1259;48.306;14.374;2023-04-24T15:01:51;12.30;99.90
2497;DHT22;1259;48.306;14.374;2023-04-24T15:04:20;12.20;99.90
2497;DHT22;1259;48.306;14.374;2023-04-24T15:06:46;12.10;99.90
2497;DHT22;1259;48.306;14.374;2023-04-24T15:09:14;11.70;99.90
2497;DHT22;1259;48.306;14.374;2023-04-24T15:11:41;11.10;99.90
2497;DHT22;1259;48.306;14.374;2023-04-24T15:14:08;10.70;99.90
2497;DHT22;1259;48.306;14.374;2023-04-24T15:16:35;10.30;99.90
2497;DHT22;1259;48.306;14.374;2023-04-24T15:19:03;10.10;99.90
2497;DHT22;1259;48.306;14.374;2023-04-24T15:21:29;10.00;99.90
2497;DHT22;1259;48.306;14.374;2023-04-24T15:23:56;10.00;99.90
2497;DHT22;1259;48.306;14.374;2023-04-24T15:26:23;9.90;99.90
2497;DHT22;1259;48.306;14.374;2023-04-24T15:28:50;10.00;99.90
2497;DHT22;1259;48.306;14.374;2023-04-24T15:31:17;9.90;99.90
2497;DHT22;1259;48.306;14.374;2023-04-24T15:33:43;10.00;99.90
2497;DHT22;1259;48.306;14.374;2023-04-24T15:36:12;10.00;99.90
2497;DHT22;1259;48.306;14.374;2023-04-24T15:38:38;10.00;99.90
2497;DHT22;1259;48.306;14.374;2023-04-24T15:41:05;10.10;99.90
2497;DHT22;1259;48.306;14.374;2023-04-24T15:43:32;10.10;99.90
2497;DHT22;1259;48.306;14.374;2023-04-24T15:45:59;10.10;99.90
2497;DHT22;1259;48.306;14.374;2023-04-24T15:48:26;10.10;99.90
2497;DHT22;1259;48.306;14.374;2023-04-24T15:50:53;10.20;99.90
2497;DHT22;1259;48.306;14.374;2023-04-24T15:53:21;10.30;99.90
2497;DHT22;1259;48.306;14.374;2023-04-24T15:55:48;10.30;99.90